createdAt,value
2024-03-06T00:00:55.007Z,15.35
2024-03-06T00:03:21.608Z,16.33
2024-03-06T00:05:48.855Z,15.05
2024-03-06T00:08:15.873Z,18.73
2024-03-06T00:10:42.869Z,16.00
2024-03-06T00:13:09.568Z,18.23
2024-03-06T00:15:36.224Z,17.48
2024-03-06T00:18:04.549Z,16.30
2024-03-06T00:20:31.131Z,17.13
2024-03-06T00:22:57.918Z,16.33
2024-03-06T00:25:24.506Z,16.60
2024-03-06T00:27:51.126Z,17.05
2024-03-06T00:30:17.883Z,17.40
2024-03-06T00:32:44.654Z,17.63
2024-03-06T00:35:13.354Z,16.80
2024-03-06T00:37:40.266Z,15.70
2024-03-06T00:40:07.768Z,16.35
2024-03-06T00:42:34.541Z,16.83
2024-03-06T00:45:01.237Z,18.75
2024-03-06T00:47:28.457Z,18.63
2024-03-06T00:49:55.135Z,15.82
2024-03-06T00:52:21.845Z,16.15
2024-03-06T00:54:48.496Z,16.88
2024-03-06T00:57:15.100Z,18.63
2024-03-06T00:59:41.678Z,17.52
2024-03-06T01:02:08.360Z,17.75
2024-03-06T01:04:35.093Z,15.38
2024-03-06T01:07:01.750Z,16.50
2024-03-06T01:09:28.409Z,16.77
2024-03-06T01:11:55.025Z,16.73
2024-03-06T01:14:23.554Z,18.45
2024-03-06T01:16:50.172Z,17.73
2024-03-06T01:19:16.753Z,16.90
2024-03-06T01:21:43.432Z,17.95
2024-03-06T01:24:10.026Z,16.98
2024-03-06T01:26:36.711Z,16.55
2024-03-06T01:29:03.635Z,17.80
2024-03-06T01:31:30.396Z,17.45
2024-03-06T01:33:57.001Z,16.83
2024-03-06T01:36:23.654Z,17.52
2024-03-06T01:38:50.228Z,17.98
2024-03-06T01:41:17.033Z,18.15
2024-03-06T01:43:43.975Z,19.58
2024-03-06T01:46:10.616Z,18.52
2024-03-06T01:48:37.286Z,20.02
2024-03-06T01:51:06.036Z,20.25
2024-03-06T01:53:34.728Z,20.60
2024-03-06T01:56:02.586Z,20.38
2024-03-06T01:58:29.492Z,20.83
2024-03-06T02:00:56.479Z,21.85
2024-03-06T02:03:23.765Z,21.75
2024-03-06T02:05:51.770Z,24.25
2024-03-06T02:08:18.866Z,23.50
2024-03-06T02:10:46.487Z,24.75
2024-03-06T02:13:14.859Z,22.55
2024-03-06T02:15:42.048Z,24.02
2024-03-06T02:18:10.198Z,24.55
2024-03-06T02:20:41.075Z,23.88
2024-03-06T02:23:08.867Z,24.83
2024-03-06T02:25:35.763Z,24.38
2024-03-06T02:28:02.461Z,25.17
2024-03-06T02:30:31.553Z,24.30
2024-03-06T02:32:58.388Z,25.33
2024-03-06T02:35:25.108Z,25.85
2024-03-06T02:37:51.728Z,26.55
2024-03-06T02:40:18.433Z,25.48
2024-03-06T02:42:45.065Z,27.35
2024-03-06T02:45:11.656Z,24.50
2024-03-06T02:47:38.447Z,26.15
2024-03-06T02:50:06.324Z,26.15
2024-03-06T02:52:33.161Z,27.98
2024-03-06T02:55:01.142Z,27.38
2024-03-06T02:57:29.493Z,27.83
2024-03-06T02:59:59.843Z,28.77
2024-03-06T03:02:27.149Z,28.20
2024-03-06T03:04:54.066Z,27.40
2024-03-06T03:07:20.812Z,27.17
2024-03-06T03:09:48.228Z,28.67
2024-03-06T03:12:15.004Z,27.65
2024-03-06T03:14:42.380Z,27.35
2024-03-06T03:17:09.154Z,28.92
2024-03-06T03:19:36.222Z,28.48
2024-03-06T03:22:05.405Z,28.02
2024-03-06T03:24:32.231Z,29.98
2024-03-06T03:26:58.845Z,27.60
2024-03-06T03:29:25.396Z,29.77
2024-03-06T03:31:52.106Z,28.25
2024-03-06T03:34:18.750Z,29.80
2024-03-06T03:36:45.404Z,29.38
2024-03-06T03:39:18.387Z,30.95
2024-03-06T03:41:49.462Z,29.58
2024-03-06T03:44:17.890Z,30.83
2024-03-06T03:46:44.805Z,28.63
2024-03-06T03:49:11.820Z,30.83
2024-03-06T03:51:39.760Z,29.80
2024-03-06T03:54:07.346Z,29.00
2024-03-06T03:56:34.582Z,29.73
2024-03-06T03:59:01.282Z,31.13
2024-03-06T04:01:28.074Z,30.48
2024-03-06T04:03:54.695Z,31.40
2024-03-06T04:06:21.361Z,31.27
2024-03-06T04:08:48.048Z,30.77
2024-03-06T04:11:14.735Z,30.85
2024-03-06T04:13:41.439Z,31.00
2024-03-06T04:16:08.158Z,32.80
2024-03-06T04:18:35.325Z,31.80
2024-03-06T04:21:08.436Z,31.73
2024-03-06T04:23:35.262Z,33.00
2024-03-06T04:26:02.337Z,29.70
2024-03-06T04:28:29.308Z,30.67
2024-03-06T04:30:56.531Z,29.73
2024-03-06T04:33:23.246Z,30.25
2024-03-06T04:35:49.897Z,30.45
2024-03-06T04:38:16.769Z,31.88
2024-03-06T04:40:43.627Z,30.00
2024-03-06T04:43:10.545Z,30.80
2024-03-06T04:45:37.194Z,31.00
2024-03-06T04:48:04.271Z,31.63
2024-03-06T04:50:30.882Z,31.02
2024-03-06T04:52:57.701Z,30.73
2024-03-06T04:55:26.157Z,32.53
2024-03-06T04:57:56.878Z,31.63
2024-03-06T05:00:24.365Z,32.05
2024-03-06T06:00:30.651Z,29.17
2024-03-06T06:02:57.427Z,29.15
2024-03-06T06:05:25.313Z,30.45
2024-03-06T06:07:52.384Z,29.85
2024-03-06T06:10:21.708Z,29.35
2024-03-06T06:12:49.944Z,28.58
2024-03-06T06:15:16.870Z,30.80
2024-03-06T06:17:47.305Z,30.85
2024-03-06T06:20:18.146Z,22.55
2024-03-06T06:22:45.518Z,30.15
2024-03-06T06:25:12.500Z,29.67
2024-03-06T06:27:40.075Z,31.25
2024-03-06T06:30:10.100Z,31.95
2024-03-06T06:32:37.769Z,30.30
2024-03-06T06:35:06.108Z,31.48
2024-03-06T06:37:33.024Z,32.42
2024-03-06T06:40:00.625Z,32.83
2024-03-06T06:42:27.266Z,32.03
2024-03-06T06:44:54.190Z,31.95
2024-03-06T06:47:20.852Z,29.52
2024-03-06T06:49:47.456Z,31.80
2024-03-06T06:52:15.880Z,33.05
2024-03-06T06:54:42.467Z,34.75
2024-03-06T06:57:09.968Z,32.10
2024-03-06T06:59:36.568Z,32.38
2024-03-06T07:02:03.952Z,33.22
2024-03-06T07:04:30.552Z,30.02
2024-03-06T07:06:57.152Z,32.30
2024-03-06T07:09:23.764Z,32.75
2024-03-06T07:11:50.711Z,32.33
2024-03-06T07:14:17.379Z,31.00
2024-03-06T07:16:45.189Z,32.63
2024-03-06T07:19:12.774Z,31.02
2024-03-06T07:21:39.634Z,33.60
2024-03-06T07:24:06.525Z,32.60
2024-03-06T07:26:34.538Z,32.65
2024-03-06T07:29:01.797Z,31.33
2024-03-06T07:31:28.542Z,31.30
2024-03-06T07:33:55.098Z,30.40
2024-03-06T07:36:22.044Z,30.73
2024-03-06T07:38:48.728Z,32.42
2024-03-06T07:41:15.384Z,32.15
2024-03-06T07:43:42.498Z,29.63
2024-03-06T07:46:11.701Z,29.65
2024-03-06T07:48:39.460Z,29.35
2024-03-06T07:51:06.460Z,28.55
2024-03-06T07:53:33.150Z,30.85
2024-03-06T07:55:59.936Z,31.25
2024-03-06T07:58:26.689Z,32.30
2024-03-06T08:00:57.548Z,30.60
2024-03-06T08:03:25.435Z,22.50
2024-03-06T08:05:56.299Z,29.98
2024-03-06T08:08:23.464Z,32.77
2024-03-06T08:10:50.402Z,31.15
2024-03-06T08:13:18.884Z,32.30
2024-03-06T08:15:46.267Z,32.60
2024-03-06T08:18:14.582Z,30.75
2024-03-06T08:20:42.743Z,31.92
2024-03-06T08:23:11.369Z,29.00
2024-03-06T08:25:38.918Z,28.92
2024-03-06T08:28:06.619Z,30.23
2024-03-06T08:30:33.899Z,30.05
2024-03-06T08:33:00.914Z,28.83
2024-03-06T08:35:27.964Z,28.10
2024-03-06T08:37:54.700Z,30.33
2024-03-06T08:40:21.842Z,31.00
2024-03-06T08:42:49.810Z,29.20
2024-03-06T08:45:17.848Z,31.38
2024-03-06T08:47:45.660Z,31.05
2024-03-06T08:50:13.633Z,30.95
2024-03-06T08:52:40.570Z,30.73
2024-03-06T08:55:08.081Z,29.88
2024-03-06T08:57:35.783Z,30.67
2024-03-06T09:00:03.428Z,29.98
2024-03-06T09:02:31.854Z,30.70
2024-03-06T09:04:58.462Z,29.20
2024-03-06T09:07:25.152Z,29.48
2024-03-06T09:09:54.879Z,29.15
2024-03-06T09:12:21.620Z,27.58
2024-03-06T09:14:48.313Z,27.10
2024-03-06T09:17:15.889Z,28.65
2024-03-06T09:19:54.983Z,26.35
2024-03-06T09:22:29.819Z,25.30
2024-03-06T09:24:57.596Z,28.80
2024-03-06T09:27:24.428Z,30.70
2024-03-06T09:29:51.080Z,30.50
2024-03-06T09:32:20.096Z,28.98
2024-03-06T09:34:47.031Z,28.48
2024-03-06T09:37:13.750Z,27.48
2024-03-06T09:39:40.390Z,28.52
2024-03-06T09:42:07.804Z,28.25
2024-03-06T09:44:35.425Z,27.58
2024-03-06T09:47:07.373Z,27.88
2024-03-06T09:49:35.999Z,28.48
2024-03-06T09:52:05.020Z,26.63
2024-03-06T09:54:31.830Z,27.92
2024-03-06T09:57:00.074Z,27.80
2024-03-06T09:59:28.314Z,29.10
2024-03-06T10:01:59.470Z,28.77
2024-03-06T10:04:27.745Z,26.42
2024-03-06T10:06:56.227Z,26.23
2024-03-06T10:09:22.989Z,27.13
2024-03-06T10:11:50.226Z,26.67
2024-03-06T10:14:17.135Z,27.83
2024-03-06T10:16:53.167Z,26.25
2024-03-06T10:19:20.486Z,28.27
2024-03-06T10:21:52.097Z,28.58
2024-03-06T10:24:29.168Z,27.88
2024-03-06T10:26:59.192Z,28.42
2024-03-06T10:29:27.628Z,27.10
2024-03-06T10:31:57.581Z,28.48
2024-03-06T10:34:28.798Z,26.92
2024-03-06T10:37:14.177Z,28.40
2024-03-06T10:39:45.302Z,26.52
2024-03-06T10:42:14.382Z,27.33
2024-03-06T10:44:52.985Z,27.13
2024-03-06T10:47:20.548Z,25.67
2024-03-06T10:49:48.528Z,26.45
2024-03-06T10:52:17.873Z,28.08
2024-03-06T10:54:47.300Z,27.98
2024-03-06T10:57:15.489Z,27.55
2024-03-06T10:59:44.198Z,26.60
2024-03-06T11:02:13.833Z,26.83
2024-03-06T11:04:41.794Z,25.90
2024-03-06T11:07:11.908Z,25.73
2024-03-06T11:09:40.915Z,26.40
2024-03-06T11:12:08.433Z,25.58
2024-03-06T11:14:39.715Z,26.98
2024-03-06T11:17:09.646Z,25.15
2024-03-06T11:20:01.843Z,27.70
2024-03-06T11:23:00.830Z,26.33
2024-03-06T11:25:47.165Z,26.13
2024-03-06T11:28:31.013Z,25.38
2024-03-06T11:31:06.570Z,22.95
2024-03-06T11:33:44.936Z,24.27
2024-03-06T11:36:21.762Z,23.33
2024-03-06T11:38:49.442Z,23.75
2024-03-06T11:41:16.191Z,22.52
2024-03-06T11:43:44.027Z,21.50
2024-03-06T11:46:11.566Z,21.23
2024-03-06T11:48:39.706Z,22.23
2024-03-06T11:51:06.698Z,22.10
2024-03-06T11:53:38.347Z,23.48
2024-03-06T11:56:11.117Z,22.48
2024-03-06T11:58:39.008Z,22.67
2024-03-06T12:01:05.913Z,22.55
2024-03-06T12:03:32.833Z,24.02
2024-03-06T12:06:00.068Z,25.13
2024-03-06T12:08:28.177Z,23.85
2024-03-06T12:10:56.730Z,22.75
2024-03-06T12:13:23.755Z,23.17
2024-03-06T12:15:50.486Z,24.15
2024-03-06T12:18:20.508Z,32.75
2024-03-06T12:20:47.399Z,26.55
2024-03-06T12:23:30.316Z,25.38
2024-03-06T12:26:11.298Z,22.70
2024-03-06T12:28:39.454Z,24.35
2024-03-06T12:31:08.851Z,23.40
2024-03-06T12:33:35.914Z,22.95
2024-03-06T12:36:07.875Z,23.73
2024-03-06T12:38:34.768Z,23.33
2024-03-06T12:41:01.545Z,23.83
2024-03-06T12:43:29.906Z,22.77
2024-03-06T12:45:58.701Z,21.95
2024-03-06T12:48:26.985Z,22.92
2024-03-06T12:50:55.361Z,22.75
2024-03-06T12:53:23.307Z,21.33
2024-03-06T12:55:50.079Z,22.02
2024-03-06T12:58:16.793Z,21.13
2024-03-06T13:00:43.489Z,22.48
2024-03-06T13:03:13.607Z,22.33
2024-03-06T13:05:40.310Z,20.92
2024-03-06T13:08:07.226Z,20.02
2024-03-06T13:10:33.901Z,20.05
2024-03-06T13:13:00.602Z,18.58
2024-03-06T13:15:27.193Z,19.15
2024-03-06T13:17:53.888Z,16.70
2024-03-06T13:20:20.805Z,19.42
2024-03-06T13:22:47.404Z,17.92
2024-03-06T13:25:14.180Z,19.17
2024-03-06T13:27:40.842Z,18.42
2024-03-06T13:30:09.288Z,19.05
2024-03-06T13:32:36.238Z,18.55
2024-03-06T13:35:03.492Z,17.30
2024-03-06T13:37:30.299Z,16.92
2024-03-06T13:40:01.577Z,16.88
2024-03-06T13:44:55.268Z,13.80
2024-03-06T13:47:22.012Z,16.23
2024-03-06T13:49:48.685Z,13.50
2024-03-06T13:52:16.497Z,13.13
2024-03-06T13:54:43.772Z,12.82
2024-03-06T13:57:10.821Z,12.75
2024-03-06T13:59:38.970Z,11.98
2024-03-06T14:02:07.789Z,12.63
2024-03-06T14:04:34.902Z,13.77
2024-03-06T14:07:01.595Z,13.20
2024-03-06T14:09:28.312Z,13.95
2024-03-06T14:11:55.520Z,14.98
2024-03-06T14:14:22.316Z,15.52
2024-03-06T14:16:49.137Z,16.95
2024-03-06T14:19:15.919Z,16.50
2024-03-06T14:21:43.823Z,15.32
2024-03-06T14:24:10.484Z,15.25
2024-03-06T14:26:38.035Z,16.40
2024-03-06T14:29:08.436Z,16.63
2024-03-06T14:31:35.768Z,15.57
2024-03-06T14:34:06.172Z,15.38
2024-03-06T14:36:35.334Z,15.18
2024-03-06T14:39:02.101Z,15.23
2024-03-06T14:41:28.850Z,16.05
2024-03-06T14:43:55.640Z,16.02
2024-03-06T14:46:22.361Z,15.98
2024-03-06T14:48:48.981Z,14.48
2024-03-06T14:51:16.410Z,14.93
2024-03-06T14:53:43.155Z,14.05
2024-03-06T14:56:12.060Z,14.55
2024-03-06T14:58:39.128Z,14.40
2024-03-06T15:01:06.241Z,13.30
2024-03-06T15:03:33.075Z,13.55
2024-03-06T15:05:59.985Z,13.52
2024-03-06T15:08:26.701Z,14.68
2024-03-06T15:10:55.185Z,13.10
2024-03-06T15:13:23.909Z,13.60
2024-03-06T15:15:51.691Z,13.38
2024-03-06T15:18:18.848Z,13.30
2024-03-06T15:20:45.899Z,14.15
2024-03-06T15:23:12.716Z,14.57
2024-03-06T15:25:39.685Z,14.30
2024-03-06T15:28:06.453Z,15.25
2024-03-06T15:30:35.418Z,14.95
2024-03-06T15:33:04.204Z,15.98
2024-03-06T15:35:31.230Z,13.98
2024-03-06T15:37:57.999Z,15.98
2024-03-06T15:40:26.016Z,16.00
2024-03-06T15:42:56.338Z,15.45
2024-03-06T15:45:24.107Z,14.13
2024-03-06T15:47:50.918Z,14.20
2024-03-06T15:50:17.802Z,15.60
2024-03-06T15:52:44.472Z,14.20
2024-03-06T15:55:11.190Z,13.70
2024-03-06T15:57:38.307Z,12.88
2024-03-06T16:00:14.488Z,13.60
2024-03-06T16:02:42.452Z,13.00
2024-03-06T16:05:09.669Z,13.57
2024-03-06T16:07:42.086Z,14.82
2024-03-06T16:10:11.815Z,14.55
2024-03-06T16:12:38.448Z,16.70
2024-03-06T16:15:05.750Z,15.98
2024-03-06T16:17:32.617Z,15.75
2024-03-06T16:19:59.371Z,15.77
2024-03-06T16:22:26.295Z,15.40
2024-03-06T16:24:53.147Z,15.70
2024-03-06T16:27:20.132Z,16.35
2024-03-06T16:29:49.152Z,15.63
2024-03-06T16:32:15.906Z,16.60
2024-03-06T16:34:42.637Z,16.30
2024-03-06T16:37:09.518Z,16.52
2024-03-06T16:39:36.337Z,16.63
2024-03-06T16:42:04.015Z,16.35
2024-03-06T16:44:31.574Z,16.52
2024-03-06T16:46:58.203Z,16.95
2024-03-06T16:49:25.725Z,16.45
2024-03-06T16:51:53.202Z,17.75
2024-03-06T16:54:19.806Z,17.75
2024-03-06T16:56:46.515Z,16.13
2024-03-06T16:59:14.446Z,16.63
2024-03-06T17:01:42.422Z,16.52
2024-03-06T17:04:09.204Z,17.15
2024-03-06T17:06:36.251Z,16.00
2024-03-06T17:09:02.943Z,16.23
2024-03-06T17:11:29.871Z,16.45
2024-03-06T17:13:56.606Z,17.52
2024-03-06T17:16:23.239Z,16.75
2024-03-06T17:18:49.935Z,16.58
2024-03-06T17:21:16.665Z,16.67
2024-03-06T17:23:45.014Z,16.73
2024-03-06T17:26:13.277Z,16.33
2024-03-06T17:28:41.359Z,17.63
2024-03-06T17:31:08.664Z,16.90
2024-03-06T17:33:35.314Z,16.77
2024-03-06T17:36:02.010Z,16.60
2024-03-06T17:38:30.776Z,18.08
2024-03-06T17:40:57.452Z,16.67
2024-03-06T17:43:24.144Z,17.15
2024-03-06T17:45:50.826Z,17.42
2024-03-06T17:48:18.485Z,17.58
2024-03-06T17:50:47.564Z,18.10
2024-03-06T17:53:14.805Z,17.88
2024-03-06T17:55:42.078Z,18.95
2024-03-06T17:58:09.138Z,18.90
2024-03-06T18:00:37.796Z,17.85
2024-03-06T18:03:04.992Z,16.58
2024-03-06T18:05:31.820Z,18.27
2024-03-06T18:07:58.429Z,18.38
2024-03-06T18:10:25.129Z,17.98
2024-03-06T18:12:51.905Z,18.17
2024-03-06T18:15:19.239Z,18.73
2024-03-06T18:17:45.944Z,19.00
2024-03-06T18:20:13.025Z,17.30
2024-03-06T18:22:39.919Z,18.65
2024-03-06T18:25:07.667Z,18.73
2024-03-06T18:27:35.174Z,17.92
2024-03-06T18:30:03.914Z,17.33
2024-03-06T18:32:30.685Z,18.58
2024-03-06T18:34:59.022Z,18.33
2024-03-06T18:37:26.084Z,17.40
2024-03-06T18:39:54.321Z,17.55
2024-03-06T18:42:22.200Z,18.38
2024-03-06T18:44:49.807Z,18.30
2024-03-06T18:47:16.877Z,17.40
2024-03-06T18:49:43.628Z,17.67
2024-03-06T18:52:10.748Z,17.73
2024-03-06T18:54:43.051Z,17.17
2024-03-06T18:57:10.070Z,15.73
2024-03-06T18:59:38.784Z,18.00
2024-03-06T19:02:07.601Z,16.40
2024-03-06T19:04:36.809Z,16.15
2024-03-06T19:07:04.934Z,16.88
2024-03-06T19:09:31.539Z,18.30
2024-03-06T19:11:58.372Z,16.88
2024-03-06T19:14:25.079Z,15.95
2024-03-06T19:16:52.224Z,16.25
2024-03-06T19:19:19.157Z,16.08
2024-03-06T19:21:45.962Z,15.85
2024-03-06T19:24:12.638Z,14.57
2024-03-06T19:26:39.337Z,16.40
2024-03-06T19:29:06.136Z,14.50
2024-03-06T19:31:36.001Z,14.80
2024-03-06T19:34:03.681Z,14.77
2024-03-06T19:36:30.690Z,14.38
2024-03-06T19:38:57.309Z,14.38
2024-03-06T19:41:24.554Z,14.70
2024-03-06T19:43:51.297Z,13.00
2024-03-06T19:46:18.042Z,14.25
2024-03-06T19:48:44.758Z,13.43
2024-03-06T19:51:13.423Z,14.52
2024-03-06T19:53:41.618Z,13.75
2024-03-06T19:56:11.432Z,14.20
2024-03-06T19:58:38.366Z,13.30
2024-03-06T20:01:05.118Z,13.10
2024-03-06T20:03:31.765Z,13.57
2024-03-06T20:05:58.641Z,12.80
2024-03-06T20:08:26.268Z,14.07
2024-03-06T20:10:53.222Z,12.93
2024-03-06T20:13:19.984Z,13.45
2024-03-06T20:15:46.775Z,13.52
2024-03-06T20:18:13.646Z,13.35
2024-03-06T20:20:41.893Z,13.70
2024-03-06T20:23:11.082Z,13.07
2024-03-06T20:25:42.183Z,14.00
2024-03-06T20:28:10.237Z,13.57
2024-03-06T20:30:47.751Z,13.85
2024-03-06T20:33:14.833Z,13.52
2024-03-06T20:35:41.673Z,13.65
2024-03-06T20:38:13.681Z,15.50
2024-03-06T20:40:43.477Z,14.02
2024-03-06T20:43:10.313Z,16.80
2024-03-06T20:45:39.872Z,14.95
2024-03-06T20:48:08.390Z,17.40
2024-03-06T20:50:36.269Z,16.50
2024-03-06T20:53:03.706Z,15.68
2024-03-06T20:55:30.738Z,16.50
2024-03-06T20:57:57.889Z,16.20
2024-03-06T21:00:24.673Z,16.52
2024-03-06T21:02:51.414Z,18.15
2024-03-06T21:05:18.229Z,17.63
2024-03-06T21:07:44.940Z,16.65
2024-03-06T21:10:15.782Z,19.98
2024-03-06T21:12:48.927Z,16.27
2024-03-06T21:15:16.791Z,21.77
2024-03-06T21:17:44.535Z,24.08
2024-03-06T21:20:14.861Z,24.25
2024-03-06T21:22:43.070Z,27.23
2024-03-06T21:25:11.096Z,27.17
2024-03-06T21:27:38.827Z,28.77
2024-03-06T21:30:09.132Z,27.27
2024-03-06T21:32:39.179Z,26.90
2024-03-06T21:35:06.190Z,28.98
2024-03-06T21:37:33.597Z,30.65
2024-03-06T21:40:00.656Z,28.33
2024-03-06T21:42:33.903Z,26.77
2024-03-06T21:45:00.758Z,27.27
2024-03-06T21:47:27.881Z,28.25
2024-03-06T21:49:54.676Z,25.15
2024-03-06T21:52:21.509Z,27.17
2024-03-06T21:54:48.162Z,30.00
2024-03-06T21:57:16.458Z,28.02
2024-03-06T21:59:43.290Z,25.77
2024-03-06T22:02:11.752Z,26.98
2024-03-06T22:04:38.753Z,25.52
2024-03-06T22:07:05.541Z,25.63
2024-03-06T22:09:33.143Z,24.88
2024-03-06T22:12:01.984Z,28.80
2024-03-06T22:14:29.099Z,27.88
2024-03-06T22:16:55.780Z,26.98
2024-03-06T22:19:25.478Z,28.17
2024-03-06T22:21:52.356Z,23.95
2024-03-06T22:24:19.013Z,22.08
2024-03-06T22:26:45.833Z,23.83
2024-03-06T22:29:12.531Z,23.10
2024-03-06T22:31:39.426Z,22.73
2024-03-06T22:34:07.815Z,24.88
2024-03-06T22:36:34.542Z,25.00
2024-03-06T22:39:01.734Z,23.55
2024-03-06T22:41:28.709Z,25.70
2024-03-06T22:43:55.964Z,23.15
2024-03-06T22:46:23.800Z,23.75
2024-03-06T22:48:51.152Z,23.92
2024-03-06T22:51:18.816Z,26.17
2024-03-06T22:53:46.181Z,26.30
2024-03-06T22:56:14.182Z,25.42
2024-03-06T22:58:41.258Z,25.08
2024-03-06T23:01:08.032Z,23.25
2024-03-06T23:03:36.157Z,23.60
2024-03-06T23:06:03.634Z,23.95
2024-03-06T23:08:30.356Z,24.05
2024-03-06T23:10:59.975Z,25.58
2024-03-06T23:13:26.773Z,24.45
2024-03-06T23:15:53.812Z,24.85
2024-03-06T23:18:21.334Z,25.73
2024-03-06T23:20:49.903Z,26.20
2024-03-06T23:23:16.900Z,25.10
2024-03-06T23:25:43.719Z,26.05
2024-03-06T23:28:11.887Z,24.52
2024-03-06T23:30:38.998Z,27.45
2024-03-06T23:33:07.084Z,26.17
2024-03-06T23:35:33.948Z,24.80
2024-03-06T23:38:00.645Z,25.95
2024-03-06T23:40:30.528Z,27.10
2024-03-06T23:42:58.146Z,24.67
2024-03-06T23:45:25.121Z,23.92
2024-03-06T23:47:52.579Z,25.65
2024-03-06T23:50:21.088Z,26.17
2024-03-06T23:52:49.130Z,25.77
2024-03-06T23:55:16.947Z,28.45
2024-03-06T23:57:43.734Z,26.05
